createdAt,value
2019-02-24T00:12:59.596Z,-0.30
2019-02-24T00:43:04.845Z,-0.20
2019-02-24T01:13:09.695Z,-0.20
2019-02-24T01:43:14.844Z,0.00
2019-02-24T02:13:19.697Z,0.10
2019-02-24T02:43:25.118Z,0.10
2019-02-24T03:13:30.172Z,0.20
2019-02-24T03:43:35.409Z,0.30
2019-02-24T04:13:40.219Z,0.40
2019-02-24T04:43:45.246Z,0.50
2019-02-24T05:13:50.007Z,0.50
2019-02-24T05:43:55.477Z,0.60
2019-02-24T06:14:00.157Z,0.50
2019-02-24T06:44:06.633Z,0.40
2019-02-24T07:14:11.481Z,0.60
2019-02-24T07:44:16.624Z,0.80
2019-02-24T08:14:21.407Z,1.50
2019-02-24T08:44:27.093Z,2.40
2019-02-24T09:14:31.935Z,2.90
2019-02-24T09:44:38.264Z,4.20
2019-02-24T10:14:43.509Z,5.00
2019-02-24T10:44:48.784Z,6.00
2019-02-24T11:14:53.649Z,6.80
2019-02-24T11:44:58.880Z,8.80
2019-02-24T12:15:04.117Z,9.00
2019-02-24T12:45:10.700Z,9.50
2019-02-24T13:15:15.568Z,10.80
2019-02-24T13:45:21.789Z,10.60
2019-02-24T14:15:26.545Z,11.40
2019-02-24T14:45:31.796Z,11.30
2019-02-24T15:15:37.465Z,11.10
2019-02-24T15:45:42.701Z,10.60
2019-02-24T16:15:47.861Z,9.80
2019-02-24T16:45:53.064Z,8.80
2019-02-24T17:15:57.868Z,7.70
2019-02-24T17:46:03.136Z,6.70
2019-02-24T18:16:07.939Z,6.50
2019-02-24T18:46:13.052Z,5.90
2019-02-24T19:16:17.821Z,5.00
2019-02-24T19:46:23.444Z,4.30
2019-02-24T20:16:28.376Z,4.40
2019-02-24T20:46:33.402Z,3.90
2019-02-24T21:16:38.273Z,3.90
2019-02-24T21:46:43.847Z,4.00
2019-02-24T22:16:48.705Z,4.00
2019-02-24T22:46:54.218Z,3.70
2019-02-24T23:16:59.059Z,3.50
2019-02-24T23:47:04.361Z,3.00
